createdAt,value
2023-06-26T00:02:17.993Z,6.63
2023-06-26T00:04:45.288Z,6.50
2023-06-26T00:07:12.107Z,6.57
2023-06-26T00:09:39.108Z,6.68
2023-06-26T00:12:06.424Z,5.90
2023-06-26T00:14:33.436Z,5.97
2023-06-26T00:17:00.171Z,6.80
2023-06-26T00:19:26.878Z,7.50
2023-06-26T00:21:53.692Z,5.88
2023-06-26T00:24:20.652Z,5.72
2023-06-26T00:26:48.890Z,6.32
2023-06-26T00:29:15.660Z,6.68
2023-06-26T00:31:42.729Z,6.68
2023-06-26T00:34:09.577Z,6.32
2023-06-26T00:36:36.388Z,6.63
2023-06-26T00:39:04.701Z,5.80
2023-06-26T00:41:31.458Z,5.95
2023-06-26T00:43:58.162Z,6.47
2023-06-26T00:46:25.770Z,6.85
2023-06-26T00:48:53.603Z,6.88
2023-06-26T00:51:20.414Z,6.30
2023-06-26T00:53:47.539Z,7.72
2023-06-26T00:56:15.217Z,6.88
2023-06-26T00:58:42.150Z,6.95
2023-06-26T01:01:09.882Z,6.25
2023-06-26T01:03:40.953Z,6.38
2023-06-26T01:06:12.634Z,6.28
2023-06-26T01:08:40.642Z,7.18
2023-06-26T01:11:07.707Z,7.00
2023-06-26T01:13:35.100Z,6.75
2023-06-26T01:16:03.292Z,7.20
2023-06-26T01:18:31.594Z,6.68
2023-06-26T01:21:02.062Z,6.57
2023-06-26T01:23:49.229Z,8.00
2023-06-26T01:26:25.094Z,7.00
2023-06-26T01:28:53.674Z,7.25
2023-06-26T01:31:21.674Z,7.95
2023-06-26T01:33:48.719Z,6.97
2023-06-26T01:36:15.502Z,7.28
2023-06-26T01:38:42.256Z,6.45
2023-06-26T01:41:09.062Z,6.93
2023-06-26T01:44:07.885Z,6.88
2023-06-26T01:47:05.243Z,6.55
2023-06-26T01:49:53.756Z,6.47
2023-06-26T01:52:29.876Z,7.00
2023-06-26T01:55:27.610Z,7.10
2023-06-26T01:57:57.966Z,6.60
2023-06-26T02:00:25.570Z,6.50
2023-06-26T02:02:53.387Z,7.20
2023-06-26T02:05:20.152Z,6.90
2023-06-26T02:07:47.014Z,6.65
2023-06-26T02:10:13.795Z,6.65
2023-06-26T02:12:40.911Z,7.15
2023-06-26T02:15:08.415Z,6.85
2023-06-26T02:17:35.470Z,7.45
2023-06-26T02:20:02.483Z,6.78
2023-06-26T02:22:29.729Z,6.93
2023-06-26T02:24:56.563Z,7.03
2023-06-26T02:27:23.226Z,6.85
2023-06-26T02:29:50.023Z,6.90
2023-06-26T02:32:16.725Z,6.68
2023-06-26T02:34:43.421Z,6.25
2023-06-26T02:37:11.378Z,6.05
2023-06-26T02:39:38.121Z,7.15
2023-06-26T02:42:05.025Z,6.70
2023-06-26T02:44:31.802Z,6.35
2023-06-26T02:46:58.525Z,6.72
2023-06-26T02:49:25.219Z,6.75
2023-06-26T02:51:51.982Z,8.02
2023-06-26T02:54:18.702Z,7.50
2023-06-26T02:56:47.943Z,7.03
2023-06-26T02:59:15.724Z,6.75
2023-06-26T03:01:42.660Z,7.13
2023-06-26T03:04:09.675Z,7.85
2023-06-26T03:06:36.411Z,6.68
2023-06-26T03:09:03.760Z,7.50
2023-06-26T03:11:30.455Z,7.25
2023-06-26T03:13:57.155Z,7.15
2023-06-26T03:16:23.832Z,7.97
2023-06-26T03:18:50.525Z,7.15
2023-06-26T03:21:17.908Z,7.32
2023-06-26T03:23:44.612Z,6.85
2023-06-26T03:26:11.328Z,7.15
2023-06-26T03:28:38.123Z,6.82
2023-06-26T03:31:04.938Z,6.88
2023-06-26T03:33:31.700Z,7.30
2023-06-26T03:35:58.594Z,7.15
2023-06-26T03:38:26.916Z,7.30
2023-06-26T03:40:53.800Z,7.75
2023-06-26T03:43:20.558Z,8.50
2023-06-26T03:45:47.656Z,8.00
2023-06-26T03:48:14.977Z,6.97
2023-06-26T03:50:41.758Z,7.93
2023-06-26T03:53:08.596Z,8.38
2023-06-26T03:55:35.437Z,7.93
2023-06-26T03:58:02.274Z,7.50
2023-06-26T04:00:29.653Z,8.23
2023-06-26T04:02:56.385Z,8.45
2023-06-26T04:05:23.167Z,7.93
2023-06-26T04:07:53.826Z,8.77
2023-06-26T04:10:22.070Z,8.30
2023-06-26T04:12:49.249Z,8.55
2023-06-26T04:15:16.073Z,8.68
2023-06-26T04:17:42.911Z,8.25
2023-06-26T04:20:10.104Z,8.05
2023-06-26T04:22:36.870Z,7.85
2023-06-26T04:25:04.713Z,7.43
2023-06-26T04:27:31.538Z,7.78
2023-06-26T04:29:58.426Z,7.55
2023-06-26T04:32:25.218Z,7.40
2023-06-26T04:34:51.965Z,7.45
2023-06-26T04:37:18.735Z,7.03
2023-06-26T04:39:45.415Z,8.02
2023-06-26T04:42:14.990Z,7.13
2023-06-26T04:44:42.458Z,8.20
2023-06-26T04:47:09.640Z,8.20
2023-06-26T04:49:39.108Z,7.32
2023-06-26T04:52:06.316Z,8.30
2023-06-26T04:54:33.012Z,8.10
2023-06-26T04:57:00.897Z,8.02
2023-06-26T04:59:27.725Z,8.98
2023-06-26T05:01:56.532Z,8.30
2023-06-26T05:04:23.838Z,8.70
2023-06-26T05:06:50.611Z,7.53
2023-06-26T05:09:17.367Z,7.53
2023-06-26T05:11:44.065Z,7.88
2023-06-26T05:14:10.865Z,6.60
2023-06-26T05:16:37.552Z,7.07
2023-06-26T05:19:04.314Z,7.70
2023-06-26T05:21:31.440Z,6.68
2023-06-26T05:23:59.137Z,8.20
2023-06-26T05:26:27.346Z,7.50
2023-06-26T05:28:54.539Z,6.72
2023-06-26T05:31:21.554Z,7.32
2023-06-26T05:33:49.798Z,7.38
2023-06-26T05:36:17.564Z,7.78
2023-06-26T05:38:44.568Z,6.75
2023-06-26T05:41:11.751Z,7.07
2023-06-26T05:43:38.509Z,6.97
2023-06-26T05:46:05.210Z,7.40
2023-06-26T05:48:32.018Z,6.63
2023-06-26T05:50:59.112Z,6.90
2023-06-26T05:53:26.133Z,6.22
2023-06-26T05:55:53.197Z,6.70
2023-06-26T05:58:22.293Z,6.70
2023-06-26T06:00:48.979Z,6.90
2023-06-26T06:03:15.779Z,6.22
2023-06-26T06:05:42.493Z,6.32
2023-06-26T06:08:09.249Z,6.85
2023-06-26T06:10:36.609Z,7.10
2023-06-26T06:13:03.515Z,6.78
2023-06-26T06:15:31.121Z,6.03
2023-06-26T06:17:58.187Z,7.75
2023-06-26T06:20:25.974Z,6.32
2023-06-26T06:22:52.760Z,6.22
2023-06-26T06:25:19.491Z,5.90
2023-06-26T06:27:46.226Z,6.43
2023-06-26T06:30:13.445Z,7.68
2023-06-26T06:32:40.203Z,9.10
2023-06-26T06:35:10.970Z,7.00
2023-06-26T06:37:39.122Z,6.47
2023-06-26T06:40:10.690Z,6.20
2023-06-26T06:42:37.408Z,7.43
2023-06-26T06:45:04.911Z,7.00
2023-06-26T06:47:32.430Z,6.40
2023-06-26T06:49:59.788Z,7.82
2023-06-26T06:52:26.483Z,7.40
2023-06-26T06:54:54.881Z,7.10
2023-06-26T06:57:22.601Z,6.82
2023-06-26T06:59:49.694Z,7.45
2023-06-26T07:02:18.561Z,6.75
2023-06-26T07:04:45.388Z,6.22
2023-06-26T07:07:14.843Z,6.68
2023-06-26T07:09:41.596Z,6.00
2023-06-26T07:12:08.584Z,6.95
2023-06-26T07:14:35.307Z,6.25
2023-06-26T07:17:02.071Z,7.10
2023-06-26T07:19:28.861Z,6.40
2023-06-26T07:21:55.707Z,6.55
2023-06-26T07:24:22.561Z,6.32
2023-06-26T07:29:16.101Z,6.60
2023-06-26T07:31:43.013Z,6.38
2023-06-26T07:34:09.878Z,6.82
2023-06-26T07:36:36.583Z,6.82
2023-06-26T07:39:03.407Z,6.90
2023-06-26T07:41:32.326Z,6.93
2023-06-26T07:44:00.169Z,6.60
2023-06-26T07:46:26.929Z,6.55
2023-06-26T07:48:54.269Z,6.20
2023-06-26T07:51:21.443Z,6.60
2023-06-26T07:53:48.399Z,6.45
2023-06-26T07:56:18.194Z,6.63
2023-06-26T07:58:45.020Z,7.45
2023-06-26T08:01:12.092Z,7.00
2023-06-26T08:03:39.026Z,7.80
2023-06-26T08:06:06.158Z,7.20
2023-06-26T08:08:32.972Z,6.78
2023-06-26T08:10:59.729Z,7.35
2023-06-26T08:13:26.901Z,6.78
2023-06-26T08:15:53.636Z,7.25
2023-06-26T08:18:20.520Z,7.35
2023-06-26T08:20:47.285Z,8.57
2023-06-26T08:23:13.974Z,8.48
2023-06-26T08:25:40.688Z,7.25
2023-06-26T08:28:07.484Z,7.80
2023-06-26T08:30:34.332Z,7.53
2023-06-26T08:33:01.067Z,6.55
2023-06-26T08:35:27.784Z,7.38
2023-06-26T08:37:55.594Z,7.65
2023-06-26T08:40:22.911Z,7.20
2023-06-26T08:42:53.774Z,7.60
2023-06-26T08:45:21.496Z,7.93
2023-06-26T08:47:52.757Z,6.97
2023-06-26T08:50:23.450Z,7.25
2023-06-26T08:53:02.040Z,7.25
2023-06-26T08:55:30.436Z,7.40
2023-06-26T08:57:57.388Z,6.90
2023-06-26T09:00:24.715Z,7.28
2023-06-26T09:02:53.937Z,7.63
2023-06-26T09:05:20.702Z,7.70
2023-06-26T09:07:47.790Z,7.35
2023-06-26T09:10:14.560Z,7.50
2023-06-26T09:12:41.359Z,7.60
2023-06-26T09:15:08.840Z,7.60
2023-06-26T09:17:43.570Z,7.15
2023-06-26T09:20:11.525Z,7.43
2023-06-26T09:22:39.570Z,8.55
2023-06-26T09:25:07.231Z,8.45
2023-06-26T09:27:35.388Z,7.40
2023-06-26T09:30:07.753Z,7.20
2023-06-26T09:32:38.030Z,7.82
2023-06-26T09:35:05.655Z,7.47
2023-06-26T09:37:32.440Z,7.53
2023-06-26T09:39:59.333Z,8.27
2023-06-26T09:42:26.538Z,8.27
2023-06-26T09:44:53.266Z,8.10
2023-06-26T09:47:21.053Z,7.40
2023-06-26T09:49:49.376Z,7.10
2023-06-26T09:52:17.610Z,7.72
2023-06-26T09:54:46.091Z,8.07
2023-06-26T09:57:16.268Z,7.38
2023-06-26T09:59:46.282Z,7.70
2023-06-26T10:02:13.759Z,7.20
2023-06-26T10:04:40.956Z,7.20
2023-06-26T10:07:12.057Z,7.13
2023-06-26T10:09:43.460Z,7.03
2023-06-26T10:12:43.361Z,8.32
2023-06-26T10:15:13.851Z,7.13
2023-06-26T10:17:43.950Z,6.85
2023-06-26T10:20:11.267Z,7.57
2023-06-26T10:22:45.561Z,7.28
2023-06-26T10:25:17.584Z,7.47
2023-06-26T10:27:48.102Z,7.80
2023-06-26T10:30:22.120Z,7.72
2023-06-26T10:32:49.795Z,7.13
2023-06-26T10:35:17.404Z,7.32
2023-06-26T10:37:47.950Z,7.70
2023-06-26T10:40:22.042Z,7.32
2023-06-26T10:42:48.803Z,6.13
2023-06-26T10:45:16.630Z,6.50
2023-06-26T10:47:46.882Z,7.03
2023-06-26T10:50:27.121Z,6.80
2023-06-26T10:53:19.812Z,6.88
2023-06-26T10:55:58.146Z,6.70
2023-06-26T10:58:40.779Z,6.20
2023-06-26T11:01:16.371Z,7.03
2023-06-26T11:06:19.098Z,9.75
2023-06-26T11:08:56.069Z,5.53
2023-06-26T11:11:55.772Z,6.05
2023-06-26T11:14:24.029Z,5.22
2023-06-26T11:16:51.168Z,4.82
2023-06-26T11:19:19.545Z,5.97
2023-06-26T11:21:46.794Z,5.07
2023-06-26T11:24:14.466Z,5.28
2023-06-26T11:26:46.172Z,5.70
2023-06-26T11:29:13.408Z,5.72
2023-06-26T11:31:42.674Z,5.78
2023-06-26T11:34:13.212Z,5.82
2023-06-26T11:36:43.431Z,5.63
2023-06-26T11:39:10.782Z,5.53
2023-06-26T11:41:39.623Z,5.53
2023-06-26T11:44:11.350Z,5.75
2023-06-26T11:46:39.103Z,5.18
2023-06-26T11:49:09.413Z,5.53
2023-06-26T11:51:39.779Z,5.55
2023-06-26T11:54:06.675Z,5.72
2023-06-26T11:56:34.044Z,5.13
2023-06-26T11:59:03.998Z,4.95
2023-06-26T12:01:34.082Z,5.50
2023-06-26T12:04:04.482Z,5.60
2023-06-26T12:06:34.492Z,5.53
2023-06-26T12:09:05.945Z,6.03
2023-06-26T12:11:34.711Z,5.78
2023-06-26T12:14:02.420Z,5.63
2023-06-26T12:16:31.319Z,5.00
2023-06-26T12:19:03.588Z,5.10
2023-06-26T12:21:39.398Z,5.90
2023-06-26T12:24:07.987Z,5.00
2023-06-26T12:26:36.515Z,4.38
2023-06-26T12:29:09.900Z,5.30
2023-06-26T12:31:40.332Z,5.13
2023-06-26T12:34:18.342Z,5.13
2023-06-26T12:36:48.023Z,5.20
2023-06-26T12:39:20.440Z,4.95
2023-06-26T12:41:48.757Z,5.30
2023-06-26T12:44:41.614Z,5.45
2023-06-26T12:47:09.202Z,5.53
2023-06-26T12:49:37.410Z,5.95
2023-06-26T12:52:08.062Z,5.70
2023-06-26T12:54:36.198Z,5.78
2023-06-26T12:57:05.050Z,5.63
2023-06-26T12:59:32.533Z,5.72
2023-06-26T13:01:59.999Z,5.97
2023-06-26T13:04:27.013Z,5.50
2023-06-26T13:06:56.420Z,5.53
2023-06-26T13:09:27.536Z,6.03
2023-06-26T13:11:54.663Z,5.40
2023-06-26T13:14:21.861Z,5.85
2023-06-26T13:16:48.683Z,5.70
2023-06-26T13:19:16.081Z,5.35
2023-06-26T13:21:43.109Z,5.78
2023-06-26T13:24:10.338Z,6.00
2023-06-26T13:26:38.397Z,5.82
2023-06-26T13:29:05.839Z,5.85
2023-06-26T13:31:33.453Z,5.53
2023-06-26T13:34:00.718Z,5.68
2023-06-26T13:36:27.755Z,6.20
2023-06-26T13:38:57.037Z,5.63
2023-06-26T13:41:24.822Z,5.53
2023-06-26T13:43:51.851Z,5.85
2023-06-26T13:46:19.662Z,5.72
2023-06-26T13:48:47.240Z,5.93
2023-06-26T13:51:14.248Z,5.85
2023-06-26T13:53:41.078Z,5.82
2023-06-26T13:56:08.970Z,5.90
2023-06-26T13:58:37.305Z,6.05
2023-06-26T14:01:05.310Z,6.60
2023-06-26T14:03:32.553Z,6.28
2023-06-26T14:05:59.576Z,6.28
2023-06-26T14:08:26.340Z,6.50
2023-06-26T14:10:53.096Z,5.63
2023-06-26T14:13:23.306Z,5.40
2023-06-26T14:15:53.711Z,5.80
2023-06-26T14:18:22.093Z,6.13
2023-06-26T14:20:49.305Z,6.15
2023-06-26T14:23:16.575Z,5.25
2023-06-26T14:25:43.608Z,6.07
2023-06-26T14:28:10.461Z,6.22
2023-06-26T14:30:37.285Z,6.47
2023-06-26T14:33:04.338Z,6.13
2023-06-26T14:35:31.169Z,6.07
2023-06-26T14:37:57.885Z,6.30
2023-06-26T14:40:24.937Z,7.60
2023-06-26T14:42:52.043Z,6.65
2023-06-26T14:45:19.243Z,6.20
2023-06-26T14:47:46.618Z,6.53
2023-06-26T14:50:13.437Z,7.40
2023-06-26T14:52:40.362Z,7.40
2023-06-26T14:55:08.111Z,7.32
2023-06-26T14:57:35.676Z,6.80
2023-06-26T15:00:02.649Z,7.38
2023-06-26T15:02:29.480Z,7.50
2023-06-26T15:04:56.260Z,7.00
2023-06-26T15:07:23.126Z,7.03
2023-06-26T15:09:49.936Z,7.47
2023-06-26T15:12:16.721Z,6.90
2023-06-26T15:14:43.489Z,7.43
2023-06-26T15:17:10.400Z,7.25
2023-06-26T15:19:40.052Z,7.45
2023-06-26T15:22:07.053Z,6.75
2023-06-26T15:24:33.838Z,7.50
2023-06-26T15:27:00.597Z,7.20
2023-06-26T15:29:27.395Z,6.55
2023-06-26T15:31:57.655Z,6.35
2023-06-26T15:34:24.530Z,6.78
2023-06-26T15:36:51.248Z,7.22
2023-06-26T15:39:18.404Z,7.13
2023-06-26T15:41:46.462Z,6.55
2023-06-26T15:44:13.228Z,6.32
2023-06-26T15:46:39.960Z,7.28
2023-06-26T15:49:06.975Z,6.20
2023-06-26T15:51:38.241Z,7.30
2023-06-26T15:54:05.870Z,7.20
2023-06-26T15:56:32.894Z,7.13
2023-06-26T15:58:59.678Z,6.68
2023-06-26T16:01:27.256Z,7.38
2023-06-26T16:03:54.156Z,6.35
2023-06-26T16:06:21.049Z,6.20
2023-06-26T16:08:50.261Z,6.25
2023-06-26T16:11:17.231Z,6.97
2023-06-26T16:13:45.359Z,6.38
2023-06-26T16:16:12.843Z,6.85
2023-06-26T16:18:40.727Z,6.72
2023-06-26T16:21:08.051Z,5.78
2023-06-26T16:23:35.317Z,6.03
2023-06-26T16:26:02.295Z,6.57
2023-06-26T16:28:29.149Z,6.57
2023-06-26T16:30:55.914Z,6.00
2023-06-26T16:33:22.751Z,6.70
2023-06-26T16:35:49.671Z,5.80
2023-06-26T16:38:16.703Z,6.03
2023-06-26T16:40:43.639Z,5.82
2023-06-26T16:43:10.860Z,5.85
2023-06-26T16:45:37.826Z,6.38
2023-06-26T16:48:05.303Z,6.43
2023-06-26T16:50:32.108Z,5.53
2023-06-26T16:52:58.837Z,6.05
2023-06-26T16:55:25.547Z,6.30
2023-06-26T16:57:52.304Z,5.82
2023-06-26T17:00:19.419Z,6.05
2023-06-26T17:02:46.937Z,6.13
2023-06-26T17:05:14.129Z,6.50
2023-06-26T17:07:40.942Z,6.30
2023-06-26T17:10:08.300Z,5.68
2023-06-26T17:12:38.102Z,6.53
2023-06-26T17:15:05.361Z,7.22
2023-06-26T17:17:32.303Z,6.80
2023-06-26T17:19:59.057Z,7.25
2023-06-26T17:22:26.012Z,6.20
2023-06-26T17:24:54.230Z,6.80
2023-06-26T17:27:25.856Z,6.30
2023-06-26T17:29:52.578Z,5.53
2023-06-26T17:32:22.050Z,5.85
2023-06-26T17:34:52.678Z,6.03
2023-06-26T17:37:24.337Z,6.28
2023-06-26T17:39:55.609Z,6.10
2023-06-26T17:42:22.762Z,6.13
2023-06-26T17:44:50.011Z,6.20
2023-06-26T17:47:17.886Z,7.65
2023-06-26T17:49:44.594Z,6.10
2023-06-26T17:52:11.431Z,6.70
2023-06-26T17:54:38.415Z,7.07
2023-06-26T17:57:05.502Z,5.88
2023-06-26T17:59:32.353Z,6.70
2023-06-26T18:02:01.340Z,5.97
2023-06-26T18:04:28.412Z,8.35
2023-06-26T18:06:55.233Z,6.65
2023-06-26T18:09:22.050Z,5.45
2023-06-26T18:11:48.771Z,6.20
2023-06-26T18:14:15.959Z,6.00
2023-06-26T18:16:42.770Z,5.38
2023-06-26T18:19:09.540Z,5.65
2023-06-26T18:21:36.368Z,5.00
2023-06-26T18:24:03.133Z,5.35
2023-06-26T18:26:29.827Z,4.25
2023-06-26T18:28:57.180Z,4.90
2023-06-26T18:31:24.031Z,4.00
2023-06-26T18:33:50.944Z,3.80
2023-06-26T18:36:17.805Z,3.78
2023-06-26T18:38:44.976Z,3.58
2023-06-26T18:41:12.032Z,3.55
2023-06-26T18:43:41.284Z,3.50
2023-06-26T18:46:08.177Z,3.60
2023-06-26T18:48:34.896Z,3.40
2023-06-26T18:51:01.595Z,2.85
2023-06-26T18:53:29.809Z,3.00
2023-06-26T18:55:56.657Z,2.85
2023-06-26T18:58:24.012Z,3.35
2023-06-26T19:00:50.808Z,3.40
2023-06-26T19:03:17.531Z,3.17
2023-06-26T19:05:44.410Z,2.70
2023-06-26T19:08:11.376Z,2.92
2023-06-26T19:10:38.821Z,3.00
2023-06-26T19:13:07.207Z,2.45
2023-06-26T19:15:34.126Z,3.03
2023-06-26T19:18:01.196Z,3.08
2023-06-26T19:20:28.009Z,2.90
2023-06-26T19:23:02.068Z,2.53
2023-06-26T19:25:28.772Z,2.80
2023-06-26T19:27:55.490Z,2.65
2023-06-26T19:30:22.243Z,3.00
2023-06-26T19:32:49.020Z,2.50
2023-06-26T19:35:15.947Z,2.95
2023-06-26T19:37:56.902Z,2.40
2023-06-26T19:40:34.678Z,2.80
2023-06-26T19:43:02.369Z,2.55
2023-06-26T19:45:29.081Z,2.65
2023-06-26T19:47:55.885Z,2.58
2023-06-26T19:50:22.747Z,2.88
2023-06-26T19:52:50.136Z,2.42
2023-06-26T19:55:17.498Z,2.42
2023-06-26T19:57:44.912Z,2.55
2023-06-26T20:00:12.757Z,2.72
2023-06-26T20:02:39.844Z,2.60
2023-06-26T20:05:08.480Z,2.92
2023-06-26T20:07:36.481Z,2.50
2023-06-26T20:10:03.907Z,2.60
2023-06-26T20:12:30.622Z,2.33
2023-06-26T20:14:57.406Z,2.60
2023-06-26T20:17:25.013Z,2.67
2023-06-26T20:19:51.759Z,2.30
2023-06-26T20:22:18.682Z,2.38
2023-06-26T20:24:45.432Z,2.35
2023-06-26T20:27:12.221Z,2.38
2023-06-26T20:29:38.938Z,2.33
2023-06-26T20:32:06.240Z,2.10
2023-06-26T20:34:32.973Z,2.17
2023-06-26T20:36:59.889Z,2.55
2023-06-26T20:39:28.608Z,2.88
2023-06-26T20:41:56.375Z,2.30
2023-06-26T20:44:23.606Z,2.33
2023-06-26T20:47:09.624Z,2.60
2023-06-26T20:49:40.330Z,2.60
2023-06-26T20:52:11.867Z,2.30
2023-06-26T20:54:40.115Z,2.47
2023-06-26T20:57:10.219Z,2.15
2023-06-26T20:59:41.057Z,2.63
2023-06-26T21:02:07.934Z,3.00
2023-06-26T21:04:37.963Z,2.38
2023-06-26T21:07:07.194Z,2.88
2023-06-26T21:09:34.123Z,2.72
2023-06-26T21:12:04.470Z,2.40
2023-06-26T21:14:31.725Z,2.40
2023-06-26T21:16:58.611Z,2.65
2023-06-26T21:19:25.364Z,2.55
2023-06-26T21:21:52.068Z,3.17
2023-06-26T21:24:19.014Z,3.38
2023-06-26T21:26:45.779Z,2.80
2023-06-26T21:29:12.454Z,4.55
2023-06-26T21:31:39.169Z,2.88
2023-06-26T21:34:06.261Z,2.47
2023-06-26T21:36:32.997Z,2.33
2023-06-26T21:38:59.727Z,2.70
2023-06-26T21:41:26.679Z,2.63
2023-06-26T21:43:53.395Z,2.35
2023-06-26T21:46:20.109Z,2.50
2023-06-26T21:48:46.912Z,2.85
2023-06-26T21:51:13.631Z,2.30
2023-06-26T21:53:40.681Z,3.00
2023-06-26T21:56:07.573Z,1.92
2023-06-26T21:58:34.342Z,2.38
2023-06-26T22:01:01.589Z,2.10
2023-06-26T22:03:28.323Z,2.85
2023-06-26T22:05:55.184Z,2.08
2023-06-26T22:08:21.975Z,2.38
2023-06-26T22:10:48.877Z,1.73
2023-06-26T22:13:15.660Z,1.65
2023-06-26T22:15:42.814Z,2.30
2023-06-26T22:18:09.751Z,1.70
2023-06-26T22:20:36.530Z,1.67
2023-06-26T22:23:03.443Z,1.58
2023-06-26T22:25:30.325Z,1.85
2023-06-26T22:27:57.025Z,1.30
2023-06-26T22:30:25.662Z,1.58
2023-06-26T22:32:52.594Z,1.40
2023-06-26T22:35:19.685Z,1.30
2023-06-26T22:37:46.733Z,1.38
2023-06-26T22:40:16.321Z,1.95
2023-06-26T22:42:43.228Z,1.73
2023-06-26T22:45:11.681Z,1.45
2023-06-26T22:47:39.777Z,1.95
2023-06-26T22:50:08.212Z,1.73
2023-06-26T22:52:35.101Z,1.67
2023-06-26T22:55:03.488Z,1.20
2023-06-26T22:57:30.367Z,1.40
2023-06-26T22:59:57.223Z,1.23
2023-06-26T23:02:24.197Z,1.20
2023-06-26T23:04:51.162Z,1.27
2023-06-26T23:07:21.231Z,1.27
2023-06-26T23:09:48.990Z,1.27
2023-06-26T23:12:15.747Z,1.70
2023-06-26T23:14:42.818Z,1.60
2023-06-26T23:17:09.632Z,1.85
2023-06-26T23:19:39.228Z,1.30
2023-06-26T23:22:10.508Z,1.73
2023-06-26T23:24:38.624Z,1.45
2023-06-26T23:27:09.175Z,1.67
2023-06-26T23:29:37.652Z,1.42
2023-06-26T23:32:06.357Z,1.48
2023-06-26T23:34:39.851Z,1.33
2023-06-26T23:37:13.710Z,1.10
2023-06-26T23:39:43.089Z,1.50
2023-06-26T23:42:10.670Z,1.42
2023-06-26T23:44:37.629Z,1.38
2023-06-26T23:47:05.874Z,1.38
2023-06-26T23:49:34.288Z,1.20
2023-06-26T23:52:01.654Z,1.15
2023-06-26T23:54:29.025Z,1.38
2023-06-26T23:56:55.951Z,1.75
2023-06-26T23:59:22.798Z,1.20
